createdAt,value
2018-12-10T00:01:46.431Z,71.40
2018-12-10T00:04:29.495Z,71.40
2018-12-10T00:07:12.876Z,71.40
2018-12-10T00:09:45.297Z,71.30
2018-12-10T00:12:24.282Z,71.40
2018-12-10T00:15:05.727Z,71.50
2018-12-10T00:17:47.860Z,71.50
2018-12-10T00:20:19.410Z,71.50
2018-12-10T00:22:58.118Z,71.20
2018-12-10T00:25:30.460Z,71.50
2018-12-10T00:28:05.384Z,71.60
2018-12-10T00:30:41.498Z,71.90
2018-12-10T00:33:23.082Z,72.00
2018-12-10T00:35:58.179Z,72.10
2018-12-10T00:38:28.482Z,72.10
2018-12-10T00:41:10.139Z,72.60
2018-12-10T00:43:39.821Z,72.60
2018-12-10T00:46:14.591Z,72.70
2018-12-10T00:48:49.672Z,72.80
2018-12-10T00:51:24.518Z,73.10
2018-12-10T00:53:59.697Z,73.30
2018-12-10T00:56:31.667Z,73.30
2018-12-10T00:59:16.659Z,73.30
2018-12-10T01:01:46.699Z,72.70
2018-12-10T01:04:28.206Z,72.60
2018-12-10T01:07:05.475Z,72.60
2018-12-10T01:09:35.700Z,72.60
2018-12-10T01:12:10.410Z,72.20
2018-12-10T01:14:47.468Z,71.70
2018-12-10T01:17:19.733Z,72.00
2018-12-10T01:19:51.822Z,72.00
2018-12-10T01:22:26.861Z,72.30
2018-12-10T01:25:01.517Z,72.00
2018-12-10T01:27:41.835Z,72.20
2018-12-10T01:30:12.370Z,72.50
2018-12-10T01:32:47.191Z,72.50
2018-12-10T01:35:22.099Z,73.20
2018-12-10T01:37:51.989Z,72.60
2018-12-10T01:40:22.191Z,72.50
2018-12-10T01:42:56.723Z,72.50
2018-12-10T01:45:31.630Z,72.50
2018-12-10T01:48:01.826Z,72.80
2018-12-10T01:50:36.734Z,72.90
2018-12-10T01:53:09.163Z,73.00
2018-12-10T01:55:50.661Z,72.70
2018-12-10T01:58:32.618Z,72.70
2018-12-10T02:01:07.111Z,72.70
2018-12-10T02:03:42.400Z,72.70
2018-12-10T02:06:12.392Z,72.80
2018-12-10T02:08:47.271Z,72.40
2018-12-10T02:11:29.074Z,72.30
2018-12-10T02:14:04.441Z,72.40
2018-12-10T02:16:39.454Z,72.60
2018-12-10T02:19:14.488Z,72.60
2018-12-10T02:21:56.192Z,72.40
2018-12-10T02:24:30.623Z,72.70
2018-12-10T02:27:05.807Z,72.70
2018-12-10T02:29:37.858Z,72.70
2018-12-10T02:32:07.781Z,73.80
2018-12-10T02:34:42.970Z,73.20
2018-12-10T02:37:24.339Z,73.30
2018-12-10T02:39:56.837Z,74.20
2018-12-10T02:42:38.238Z,73.80
2018-12-10T02:45:12.612Z,74.20
2018-12-10T02:47:54.083Z,74.20
2018-12-10T02:50:28.406Z,73.70
2018-12-10T02:53:10.183Z,73.80
2018-12-10T02:55:45.471Z,73.80
2018-12-10T02:58:20.249Z,73.80
2018-12-10T03:00:55.221Z,73.70
2018-12-10T03:03:30.480Z,73.40
2018-12-10T03:06:05.449Z,73.50
2018-12-10T03:08:37.428Z,73.30
2018-12-10T03:11:07.422Z,73.20
2018-12-10T03:13:42.039Z,73.30
2018-12-10T03:16:23.730Z,73.30
2018-12-10T03:18:55.488Z,73.20
2018-12-10T03:21:36.714Z,72.90
2018-12-10T03:24:18.618Z,72.90
2018-12-10T03:26:53.955Z,72.90
2018-12-10T03:29:25.832Z,73.00
2018-12-10T03:32:07.693Z,73.10
2018-12-10T03:34:49.032Z,72.60
2018-12-10T03:37:30.086Z,72.60
2018-12-10T03:40:02.424Z,72.60
2018-12-10T03:42:43.952Z,72.40
2018-12-10T03:45:24.929Z,72.30
2018-12-10T03:48:06.794Z,72.50
2018-12-10T03:50:47.753Z,72.30
2018-12-10T03:53:29.669Z,72.30
2018-12-10T03:56:00.017Z,72.10
2018-12-10T03:58:31.883Z,72.10
2018-12-10T04:01:13.368Z,71.80
2018-12-10T04:03:55.214Z,71.70
2018-12-10T04:06:36.246Z,71.60
2018-12-10T04:11:53.378Z,71.10
2018-12-10T04:14:28.611Z,71.70
2018-12-10T04:17:06.655Z,70.90
2018-12-10T04:19:41.467Z,70.90
2018-12-10T04:22:21.452Z,70.60
2018-12-10T04:24:56.816Z,70.40
2018-12-10T04:27:26.947Z,70.30
2018-12-10T04:29:58.886Z,70.20
2018-12-10T04:32:28.999Z,70.10
2018-12-10T04:34:58.962Z,70.20
2018-12-10T04:37:35.796Z,70.20
2018-12-10T04:40:11.943Z,70.10
2018-12-10T04:42:53.388Z,70.50
2018-12-10T04:45:37.379Z,70.40
2018-12-10T04:48:14.717Z,70.40
2018-12-10T04:50:56.057Z,70.30
2018-12-10T04:53:37.162Z,70.00
2018-12-10T04:56:06.828Z,70.20
2018-12-10T04:58:38.854Z,70.20
2018-12-10T05:01:13.452Z,69.90
2018-12-10T05:03:55.270Z,70.00
2018-12-10T05:06:30.729Z,69.90
2018-12-10T05:09:05.985Z,70.40
2018-12-10T05:11:39.386Z,69.60
2018-12-10T05:14:20.794Z,69.60
2018-12-10T05:16:56.011Z,69.90
2018-12-10T05:19:28.407Z,69.80
2018-12-10T05:22:09.837Z,69.80
2018-12-10T05:24:41.619Z,69.50
2018-12-10T05:27:20.213Z,70.10
2018-12-10T05:29:52.382Z,70.00
2018-12-10T05:32:27.300Z,70.10
2018-12-10T05:35:02.304Z,70.90
2018-12-10T05:37:43.686Z,70.30
2018-12-10T05:43:26.291Z,70.80
2018-12-10T05:46:00.939Z,71.00
2018-12-10T05:48:35.346Z,71.70
2018-12-10T05:51:16.898Z,75.20
2018-12-10T05:53:58.802Z,76.40
2018-12-10T05:56:28.446Z,77.20
2018-12-10T06:01:58.950Z,76.80
2018-12-10T06:04:36.131Z,77.30
2018-12-10T06:07:08.323Z,77.30
2018-12-10T06:09:40.406Z,77.40
2018-12-10T06:12:18.874Z,78.00
2018-12-10T06:15:07.059Z,78.30
2018-12-10T06:17:48.742Z,78.20
2018-12-10T06:20:23.018Z,78.20
2018-12-10T06:22:58.174Z,77.70
2018-12-10T06:25:33.599Z,78.00
2018-12-10T06:28:15.094Z,78.00
2018-12-10T06:30:50.230Z,78.30
2018-12-10T06:33:26.049Z,78.60
2018-12-10T06:36:07.996Z,78.50
2018-12-10T06:38:42.318Z,77.40
2018-12-10T06:41:23.819Z,77.10
2018-12-10T06:44:05.714Z,77.00
2018-12-10T06:46:44.015Z,76.50
2018-12-10T06:49:16.579Z,75.80
2018-12-10T06:51:57.995Z,75.70
2018-12-10T06:54:39.146Z,75.30
2018-12-10T06:57:20.121Z,75.30
2018-12-10T06:59:51.812Z,75.30
2018-12-10T07:02:33.359Z,75.40
2018-12-10T07:05:14.460Z,75.10
2018-12-10T07:07:55.648Z,76.10
2018-12-10T07:10:27.334Z,76.30
2018-12-10T07:13:08.924Z,76.80
2018-12-10T07:15:43.293Z,77.20
2018-12-10T07:18:15.692Z,77.30
2018-12-10T07:20:57.198Z,76.90
2018-12-10T07:23:38.323Z,77.20
2018-12-10T07:26:20.201Z,76.30
2018-12-10T07:28:55.418Z,76.50
2018-12-10T07:31:27.813Z,76.50
2018-12-10T07:33:59.957Z,76.30
2018-12-10T07:36:41.388Z,76.80
2018-12-10T07:39:12.986Z,76.90
2018-12-10T07:41:54.614Z,76.70
2018-12-10T07:44:31.827Z,76.10
2018-12-10T07:47:13.513Z,76.20
2018-12-10T07:49:45.238Z,77.00
2018-12-10T07:52:19.783Z,76.30
2018-12-10T07:54:56.686Z,76.30
2018-12-10T07:57:27.178Z,75.90
2018-12-10T07:59:59.306Z,75.80
2018-12-10T08:02:40.950Z,76.10
2018-12-10T08:05:19.241Z,75.80
2018-12-10T08:07:49.531Z,76.10
2018-12-10T08:10:21.609Z,76.20
2018-12-10T08:13:00.442Z,75.80
2018-12-10T08:15:44.691Z,76.40
2018-12-10T08:18:26.239Z,76.10
2018-12-10T08:21:08.070Z,75.80
2018-12-10T08:23:43.318Z,77.20
2018-12-10T08:26:25.099Z,76.60
2018-12-10T08:29:03.883Z,77.70
2018-12-10T08:31:41.263Z,76.00
2018-12-10T08:34:11.758Z,75.80
2018-12-10T08:36:41.782Z,75.60
2018-12-10T08:39:14.424Z,74.60
2018-12-10T08:41:46.443Z,74.50
2018-12-10T08:44:21.310Z,74.70
2018-12-10T08:47:02.982Z,74.60
2018-12-10T08:49:42.297Z,74.70
2018-12-10T08:52:23.991Z,74.30
2018-12-10T08:55:05.065Z,74.40
2018-12-10T08:57:47.143Z,74.10
2018-12-10T09:00:19.858Z,73.20
2018-12-10T09:03:01.226Z,73.30
2018-12-10T09:05:42.412Z,73.60
2018-12-10T09:08:23.689Z,73.30
2018-12-10T09:11:04.865Z,73.20
2018-12-10T09:13:37.296Z,72.80
2018-12-10T09:16:18.827Z,72.60
2018-12-10T09:18:51.332Z,72.10
2018-12-10T09:21:21.311Z,71.00
2018-12-10T09:24:02.674Z,70.40
2018-12-10T09:26:44.672Z,71.10
2018-12-10T09:29:19.501Z,70.20
2018-12-10T09:32:01.251Z,70.50
2018-12-10T09:34:30.903Z,71.00
2018-12-10T09:37:12.340Z,71.40
2018-12-10T09:39:47.538Z,70.60
2018-12-10T09:42:20.051Z,71.50
2018-12-10T09:45:01.370Z,71.20
2018-12-10T09:47:43.283Z,71.10
2018-12-10T09:50:17.629Z,70.50
2018-12-10T09:52:59.239Z,70.80
2018-12-10T09:55:40.221Z,70.20
2018-12-10T09:58:14.703Z,70.80
2018-12-10T10:00:51.697Z,70.00
2018-12-10T10:03:24.095Z,70.10
2018-12-10T10:05:56.238Z,69.30
2018-12-10T10:08:26.446Z,70.80
2018-12-10T10:10:58.598Z,71.00
2018-12-10T10:13:30.708Z,70.60
2018-12-10T10:16:02.422Z,69.80
2018-12-10T10:18:34.447Z,70.60
2018-12-10T10:21:16.027Z,69.50
2018-12-10T10:23:59.554Z,69.10
2018-12-10T10:26:40.659Z,68.40
2018-12-10T10:29:12.270Z,66.60
2018-12-10T10:31:47.259Z,67.90
2018-12-10T10:34:28.896Z,66.70
2018-12-10T10:37:09.940Z,66.50
2018-12-10T10:39:51.182Z,66.70
2018-12-10T10:42:32.127Z,65.70
2018-12-10T10:45:02.043Z,66.70
2018-12-10T10:47:43.586Z,66.40
2018-12-10T10:50:16.070Z,67.20
2018-12-10T10:52:57.611Z,64.50
2018-12-10T10:55:39.567Z,64.90
2018-12-10T10:58:22.444Z,63.20
2018-12-10T11:01:03.446Z,64.60
2018-12-10T11:03:45.459Z,64.80
2018-12-10T11:06:17.364Z,64.30
2018-12-10T11:08:49.246Z,64.70
2018-12-10T11:11:31.080Z,64.50
2018-12-10T11:14:01.427Z,64.20
2018-12-10T11:16:32.611Z,63.90
2018-12-10T11:19:13.891Z,63.80
2018-12-10T11:21:46.339Z,61.40
2018-12-10T11:24:27.810Z,62.20
2018-12-10T11:27:09.739Z,61.60
2018-12-10T11:29:50.826Z,62.40
2018-12-10T11:32:31.966Z,61.90
2018-12-10T11:35:12.979Z,61.60
2018-12-10T11:37:55.043Z,62.40
2018-12-10T11:40:27.531Z,61.80
2018-12-10T11:43:02.379Z,62.60
2018-12-10T11:45:43.998Z,61.70
2018-12-10T11:48:25.132Z,60.40
2018-12-10T11:51:06.182Z,59.40
2018-12-10T11:53:36.710Z,61.10
2018-12-10T11:56:18.143Z,60.90
2018-12-10T11:58:50.727Z,60.10
2018-12-10T12:01:31.976Z,58.40
2018-12-10T12:04:13.149Z,61.30
2018-12-10T12:06:49.526Z,61.50
2018-12-10T12:09:22.050Z,59.30
2018-12-10T12:12:03.561Z,59.90
2018-12-10T12:14:44.635Z,60.00
2018-12-10T12:17:25.678Z,61.00
2018-12-10T12:20:00.853Z,59.70
2018-12-10T12:22:35.844Z,60.30
2018-12-10T12:25:08.127Z,60.20
2018-12-10T12:27:40.497Z,61.20
2018-12-10T12:30:12.274Z,61.50
2018-12-10T12:32:53.814Z,60.40
2018-12-10T12:35:29.222Z,60.00
2018-12-10T12:38:12.556Z,59.80
2018-12-10T12:40:47.152Z,60.00
2018-12-10T12:43:28.823Z,60.10
2018-12-10T12:46:04.107Z,59.50
2018-12-10T12:48:34.384Z,60.20
2018-12-10T12:51:15.813Z,60.40
2018-12-10T12:53:57.671Z,59.40
2018-12-10T12:56:32.156Z,59.80
2018-12-10T12:59:04.452Z,60.10
2018-12-10T13:01:49.464Z,58.80
2018-12-10T13:04:31.049Z,58.90
2018-12-10T13:07:12.387Z,58.80
2018-12-10T13:09:43.950Z,58.70
2018-12-10T13:12:25.589Z,58.30
2018-12-10T13:15:06.634Z,59.10
2018-12-10T13:17:47.658Z,58.70
2018-12-10T13:20:20.112Z,59.90
2018-12-10T13:22:56.611Z,60.00
2018-12-10T13:25:26.961Z,58.80
2018-12-10T13:28:01.844Z,59.50
2018-12-10T13:30:32.430Z,60.50
2018-12-10T13:33:04.490Z,60.60
2018-12-10T13:35:45.886Z,61.60
2018-12-10T13:38:27.119Z,60.80
2018-12-10T13:41:01.426Z,59.80
2018-12-10T13:43:43.211Z,60.40
2018-12-10T13:46:15.670Z,59.80
2018-12-10T13:49:03.734Z,60.10
2018-12-10T13:51:33.788Z,60.80
2018-12-10T13:54:06.116Z,60.40
2018-12-10T13:56:38.199Z,60.70
2018-12-10T13:59:10.133Z,61.60
2018-12-10T14:01:51.687Z,60.70
2018-12-10T14:04:34.862Z,61.70
2018-12-10T14:07:16.407Z,61.30
2018-12-10T14:09:46.985Z,60.00
2018-12-10T14:12:21.675Z,59.30
2018-12-10T14:15:03.535Z,59.60
2018-12-10T14:17:39.486Z,57.40
2018-12-10T14:20:09.875Z,57.10
2018-12-10T14:22:39.835Z,57.70
2018-12-10T14:25:21.390Z,58.20
2018-12-10T14:28:02.683Z,57.70
2018-12-10T14:30:37.630Z,57.90
2018-12-10T14:33:18.855Z,57.70
2018-12-10T14:36:00.809Z,57.20
2018-12-10T14:38:37.349Z,57.90
2018-12-10T14:41:12.504Z,59.40
2018-12-10T14:43:47.340Z,58.40
2018-12-10T14:46:22.320Z,59.80
2018-12-10T14:49:03.973Z,59.00
2018-12-10T14:51:45.972Z,59.40
2018-12-10T14:54:23.426Z,59.80
2018-12-10T14:57:05.345Z,60.20
2018-12-10T14:59:38.792Z,61.30
2018-12-10T15:02:17.454Z,62.00
2018-12-10T15:04:59.007Z,61.90
2018-12-10T15:07:40.963Z,61.80
2018-12-10T15:10:12.509Z,61.80
2018-12-10T15:12:47.611Z,61.10
2018-12-10T15:15:19.604Z,60.20
2018-12-10T15:21:17.019Z,60.90
2018-12-10T15:23:58.882Z,62.30
2018-12-10T15:26:33.608Z,63.10
2018-12-10T15:29:15.815Z,63.90
2018-12-10T15:31:54.871Z,64.80
2018-12-10T15:34:37.841Z,65.10
2018-12-10T15:40:18.500Z,65.20
2018-12-10T15:42:59.818Z,66.10
2018-12-10T15:45:41.776Z,67.00
2018-12-10T15:48:23.647Z,67.50
2018-12-10T15:51:02.756Z,68.30
2018-12-10T15:53:44.802Z,68.40
2018-12-10T15:56:20.046Z,68.20
2018-12-10T15:58:55.703Z,67.60
2018-12-10T16:01:26.008Z,68.00
2018-12-10T16:04:13.252Z,68.20
2018-12-10T16:07:02.674Z,67.10
2018-12-10T16:09:37.373Z,66.50
2018-12-10T16:15:12.450Z,66.10
2018-12-10T16:17:51.019Z,65.60
2018-12-10T16:20:26.044Z,65.30
2018-12-10T16:22:56.399Z,64.90
2018-12-10T16:25:39.875Z,64.10
2018-12-10T16:28:21.276Z,64.30
2018-12-10T16:31:04.210Z,65.10
2018-12-10T16:33:45.604Z,64.50
2018-12-10T16:36:20.761Z,65.00
2018-12-10T16:38:57.940Z,64.20
2018-12-10T16:41:30.991Z,64.10
2018-12-10T16:44:13.976Z,64.30
2018-12-10T16:49:44.016Z,63.60
2018-12-10T16:52:18.963Z,62.80
2018-12-10T16:54:51.318Z,62.90
2018-12-10T17:00:35.739Z,61.70
2018-12-10T17:08:59.075Z,61.30
2018-12-10T17:11:41.918Z,61.30
2018-12-10T17:14:21.496Z,60.80
2018-12-10T17:16:57.422Z,61.10
2018-12-10T17:19:39.042Z,63.00
2018-12-10T17:22:20.808Z,66.90
2018-12-10T17:25:02.109Z,71.50
2018-12-10T17:27:48.063Z,74.20
2018-12-10T17:30:29.166Z,76.40
2018-12-10T17:33:04.502Z,78.00
2018-12-10T17:35:36.560Z,79.20
2018-12-10T17:38:17.984Z,80.90
2018-12-10T17:40:59.926Z,81.30
2018-12-10T17:43:40.938Z,82.00
2018-12-10T17:46:22.883Z,82.40
2018-12-10T17:49:03.961Z,84.40
2018-12-10T17:51:34.532Z,83.20
2018-12-10T17:57:23.012Z,85.00
2018-12-10T18:00:04.758Z,85.10
2018-12-10T18:02:41.140Z,84.20
2018-12-10T18:05:20.622Z,83.40
2018-12-10T18:08:02.487Z,83.40
2018-12-10T18:10:38.744Z,84.20
2018-12-10T18:13:11.055Z,83.00
2018-12-10T18:15:53.954Z,82.50
2018-12-10T18:18:29.814Z,82.50
2018-12-10T18:21:19.134Z,83.10
2018-12-10T18:24:00.813Z,82.50
2018-12-10T18:26:42.891Z,82.80
2018-12-10T18:29:13.923Z,82.10
2018-12-10T18:31:53.082Z,80.60
2018-12-10T18:34:36.817Z,79.40
2018-12-10T18:37:09.208Z,78.60
2018-12-10T18:42:40.848Z,77.50
2018-12-10T18:45:13.346Z,75.60
2018-12-10T18:47:43.504Z,76.80
2018-12-10T18:50:15.554Z,76.00
2018-12-10T18:52:45.374Z,76.00
2018-12-10T18:55:27.800Z,75.60
2018-12-10T18:58:09.231Z,75.20
2018-12-10T19:00:39.144Z,75.90
2018-12-10T19:03:17.673Z,76.60
2018-12-10T19:05:59.279Z,76.60
2018-12-10T19:08:31.511Z,76.40
2018-12-10T19:11:07.959Z,77.00
2018-12-10T19:13:50.154Z,77.90
2018-12-10T19:16:29.574Z,79.00
2018-12-10T19:19:01.640Z,78.90
2018-12-10T19:21:42.903Z,78.80
2018-12-10T19:24:16.518Z,79.20
2018-12-10T19:26:53.230Z,79.50
2018-12-10T19:29:25.399Z,79.00
2018-12-10T19:31:55.922Z,79.80
2018-12-10T19:34:28.208Z,79.00
2018-12-10T19:37:03.640Z,78.50
2018-12-10T19:39:36.311Z,78.60
2018-12-10T19:42:19.295Z,77.90
2018-12-10T19:45:01.703Z,79.00
2018-12-10T19:47:43.652Z,78.00
2018-12-10T19:50:17.940Z,77.70
2018-12-10T19:52:59.891Z,78.60
2018-12-10T19:55:36.846Z,78.20
2018-12-10T19:58:12.068Z,79.20
2018-12-10T20:00:44.292Z,77.80
2018-12-10T20:03:19.307Z,78.10
2018-12-10T20:06:06.346Z,79.00
2018-12-10T20:08:41.232Z,79.20
2018-12-10T20:11:11.456Z,78.60
2018-12-10T20:13:48.331Z,78.40
2018-12-10T20:16:25.475Z,78.40
2018-12-10T20:18:57.860Z,78.40
2018-12-10T20:21:32.679Z,78.00
2018-12-10T20:24:14.356Z,78.20
2018-12-10T20:26:56.263Z,77.30
2018-12-10T20:29:31.609Z,76.90
2018-12-10T20:32:01.878Z,76.60
2018-12-10T20:34:43.872Z,76.90
2018-12-10T20:37:26.207Z,77.70
2018-12-10T20:40:05.466Z,78.10
2018-12-10T20:42:47.171Z,78.60
2018-12-10T20:45:29.382Z,77.80
2018-12-10T20:48:08.494Z,77.80
2018-12-10T20:50:40.826Z,78.30
2018-12-10T20:53:22.498Z,78.10
2018-12-10T20:56:04.436Z,78.40
2018-12-10T20:58:35.985Z,78.00
2018-12-10T21:01:18.519Z,78.60
2018-12-10T21:03:59.498Z,79.00
2018-12-10T21:06:35.725Z,79.80
2018-12-10T21:09:16.867Z,80.90
2018-12-10T21:11:58.836Z,81.70
2018-12-10T21:14:40.708Z,80.40
2018-12-10T21:17:17.818Z,79.40
2018-12-10T21:20:04.627Z,79.30
2018-12-10T21:22:46.548Z,79.80
2018-12-10T21:25:19.105Z,79.50
2018-12-10T21:28:00.787Z,80.00
2018-12-10T21:30:36.200Z,80.60
2018-12-10T21:33:11.676Z,81.50
2018-12-10T21:35:53.017Z,81.30
2018-12-10T21:38:34.758Z,81.90
2018-12-10T21:41:23.157Z,82.60
2018-12-10T21:43:55.306Z,83.40
2018-12-10T21:46:33.924Z,82.70
2018-12-10T21:49:09.070Z,83.00
2018-12-10T21:51:40.978Z,84.50
2018-12-10T21:54:11.262Z,84.60
2018-12-10T21:56:41.123Z,84.40
2018-12-10T21:59:16.014Z,84.30
2018-12-10T22:01:50.840Z,83.50
2018-12-10T22:04:32.617Z,82.80
2018-12-10T22:07:12.747Z,82.30
2018-12-10T22:09:45.055Z,82.60
2018-12-10T22:12:25.719Z,82.50
2018-12-10T22:14:57.975Z,82.30
2018-12-10T22:17:40.275Z,82.40
2018-12-10T22:20:16.082Z,83.20
2018-12-10T22:22:57.071Z,84.00
2018-12-10T22:25:38.167Z,83.50
2018-12-10T22:28:20.147Z,83.60
2018-12-10T22:31:01.398Z,83.40
2018-12-10T22:33:43.292Z,83.00
2018-12-10T22:36:13.791Z,82.00
2018-12-10T22:38:45.871Z,82.10
2018-12-10T22:41:27.339Z,81.80
2018-12-10T22:44:09.146Z,80.60
2018-12-10T22:46:39.450Z,80.20
2018-12-10T22:49:12.609Z,77.30
2018-12-10T22:51:53.671Z,77.40
2018-12-10T22:54:35.447Z,76.70
2018-12-10T22:57:29.000Z,76.20
2018-12-10T23:00:10.502Z,76.60
2018-12-10T23:02:42.107Z,75.70
2018-12-10T23:05:23.475Z,75.70
2018-12-10T23:08:06.627Z,75.90
2018-12-10T23:10:38.267Z,75.60
2018-12-10T23:13:19.676Z,75.90
2018-12-10T23:15:54.730Z,76.10
2018-12-10T23:18:31.938Z,76.10
2018-12-10T23:21:13.381Z,75.80
2018-12-10T23:23:48.742Z,75.00
2018-12-10T23:26:21.106Z,75.00
2018-12-10T23:28:51.335Z,75.30
2018-12-10T23:31:32.751Z,75.10
2018-12-10T23:34:11.098Z,74.60
2018-12-10T23:36:53.015Z,74.80
2018-12-10T23:39:34.916Z,75.20
2018-12-10T23:42:15.863Z,75.30
2018-12-10T23:44:51.379Z,75.00
2018-12-10T23:47:23.677Z,75.30
2018-12-10T23:50:05.129Z,75.40
2018-12-10T23:52:34.742Z,74.50
2018-12-10T23:55:13.318Z,74.80
2018-12-10T23:57:56.221Z,75.80
